East Franklin, Vermont
Current Conditions -  °F | °C
As of 6:55 PM on Wednesday 26 Nov 2014 (Local Time) from KFSO Reporting Station
Light Snow Light Snow  
Wind Chill: -6°   Ceiling: 800
Heat Index: -2°   Visibility: 1.5mi
Dew Point: -3°   Wind: 7mph
Humidity: 94%   Direction: 350°N
Pressure: 30.08"   Gusts: NA
Location:  44.9656°N, 72.8975°W
Report Text: KFSO 262355Z AUTO 35006KT 1 1/2SM -SN SCT004 BKN008 OVC012 M02/M02 A3008 RMK AO2 T10171025 11001 21020
Loading
Personal Weather Stations






























Interactive Weather Map New forecast layout! Learn more

10-Day Weather Forecast

Advertisements
Track Severe Weather on mobile